createdAt,value
2023-01-17T00:00:07.280Z,97382.19
2023-01-17T00:00:54.238Z,97379.72
2023-01-17T00:01:42.057Z,97373.16
2023-01-17T00:02:31.301Z,97376.03
2023-01-17T00:03:18.416Z,97379.91
2023-01-17T00:04:28.277Z,97377.84
2023-01-17T00:05:33.806Z,97386.28
2023-01-17T00:06:40.606Z,97378.03
2023-01-17T00:07:46.724Z,97373.16
2023-01-17T00:08:52.276Z,97379.91
2023-01-17T00:09:54.437Z,97371.91
2023-01-17T00:10:42.065Z,97374.38
2023-01-17T00:11:28.965Z,97383.00
2023-01-17T00:12:15.836Z,97377.66
2023-01-17T00:13:03.788Z,97378.09
2023-01-17T00:13:50.677Z,97376.44
2023-01-17T00:14:37.636Z,97371.53
2023-01-17T00:15:25.508Z,97379.72
2023-01-17T00:16:12.534Z,97387.53
2023-01-17T00:17:01.453Z,97378.28
2023-01-17T00:17:49.056Z,97372.53
2023-01-17T00:18:35.947Z,97378.09
2023-01-17T00:19:41.725Z,97375.00
2023-01-17T00:20:49.246Z,97380.78
2023-01-17T00:21:54.790Z,97373.19
2023-01-17T00:23:02.778Z,97370.91
2023-01-17T00:24:08.505Z,97361.47
2023-01-17T00:25:14.064Z,97367.84
2023-01-17T00:26:03.887Z,97373.78
2023-01-17T00:27:11.108Z,97379.75
2023-01-17T00:27:58.026Z,97371.75
2023-01-17T00:28:45.536Z,97375.41
2023-01-17T00:29:32.376Z,97366.81
2023-01-17T00:30:19.326Z,97368.84
2023-01-17T00:31:07.336Z,97374.41
2023-01-17T00:31:54.207Z,97373.38
2023-01-17T00:32:41.114Z,97376.88
2023-01-17T00:33:28.297Z,97378.09
2023-01-17T00:34:15.101Z,97370.09
2023-01-17T00:35:01.890Z,97368.44
2023-01-17T00:35:49.064Z,97368.66
2023-01-17T00:36:35.816Z,97373.38
2023-01-17T00:37:22.617Z,97371.09
2023-01-17T00:38:23.295Z,97378.31
2023-01-17T00:39:10.127Z,97380.56
2023-01-17T00:39:56.976Z,97374.00
2023-01-17T00:40:44.909Z,97375.00
2023-01-17T00:41:31.767Z,97381.19
2023-01-17T00:42:18.505Z,97378.09
2023-01-17T00:43:25.041Z,97384.25
2023-01-17T00:44:30.771Z,97388.34
2023-01-17T00:45:36.401Z,97389.19
2023-01-17T00:46:42.368Z,97387.13
2023-01-17T00:47:48.125Z,97396.38
2023-01-17T00:48:54.135Z,97399.66
2023-01-17T00:49:59.644Z,97400.91
2023-01-17T00:51:05.187Z,97394.75
2023-01-17T00:52:10.895Z,97392.28
2023-01-17T00:53:16.612Z,97398.66
2023-01-17T00:54:22.297Z,97395.56
2023-01-17T00:55:27.899Z,97398.66
2023-01-17T00:56:33.456Z,97399.28
2023-01-17T00:57:39.258Z,97404.19
2023-01-17T00:58:44.940Z,97403.16
2023-01-17T00:59:50.832Z,97401.28
2023-01-17T01:00:56.503Z,97399.88
2023-01-17T01:02:02.140Z,97397.84
2023-01-17T01:03:08.118Z,97400.06
2023-01-17T01:04:13.815Z,97398.19
2023-01-17T01:05:19.257Z,97400.03
2023-01-17T01:06:25.283Z,97404.16
2023-01-17T01:07:30.700Z,97405.41
2023-01-17T01:08:39.225Z,97410.13
2023-01-17T01:09:44.873Z,97407.63
2023-01-17T01:10:52.036Z,97407.25
2023-01-17T01:11:57.664Z,97421.03
2023-01-17T01:13:03.246Z,97415.94
2023-01-17T01:14:09.181Z,97413.41
2023-01-17T01:15:14.796Z,97407.22
2023-01-17T01:16:21.360Z,97406.16
2023-01-17T01:17:27.127Z,97403.72
2023-01-17T01:18:32.815Z,97412.00
2023-01-17T01:19:38.455Z,97425.16
2023-01-17T01:20:44.086Z,97421.06
2023-01-17T01:21:49.825Z,97429.28
2023-01-17T01:22:55.585Z,97423.53
2023-01-17T01:24:01.295Z,97414.47
2023-01-17T01:25:06.855Z,97414.88
2023-01-17T01:26:12.465Z,97417.97
2023-01-17T01:27:18.182Z,97410.13
2023-01-17T01:28:29.905Z,97416.75
2023-01-17T01:29:35.507Z,97425.37
2023-01-17T01:30:41.067Z,97428.88
2023-01-17T01:31:46.816Z,97426.00
2023-01-17T01:32:53.108Z,97432.78
2023-01-17T01:33:40.129Z,97436.28
2023-01-17T01:34:27.003Z,97435.88
2023-01-17T01:35:13.980Z,97435.22
2023-01-17T01:36:00.878Z,97433.41
2023-01-17T01:36:47.793Z,97431.34
2023-01-17T01:37:34.756Z,97418.78
2023-01-17T01:38:24.225Z,97420.84
2023-01-17T01:39:11.091Z,97429.50
2023-01-17T01:39:57.967Z,97424.34
2023-01-17T01:40:51.866Z,97423.94
2023-01-17T01:41:38.837Z,97422.69
2023-01-17T01:42:25.706Z,97426.59
2023-01-17T01:43:14.027Z,97434.03
2023-01-17T01:44:00.957Z,97428.88
2023-01-17T01:44:53.006Z,97424.34
2023-01-17T01:45:40.812Z,97420.03
2023-01-17T01:46:32.131Z,97418.19
2023-01-17T01:47:29.636Z,97412.81
2023-01-17T01:48:23.028Z,97415.31
2023-01-17T01:49:19.158Z,97406.66
2023-01-17T01:50:08.757Z,97400.88
2023-01-17T01:50:55.944Z,97402.31
2023-01-17T01:51:45.947Z,97401.72
2023-01-17T01:52:35.244Z,97400.72
2023-01-17T01:53:22.317Z,97400.28
2023-01-17T01:54:15.799Z,97392.88
2023-01-17T01:55:07.686Z,97393.50
2023-01-17T01:55:55.625Z,97392.47
2023-01-17T01:56:42.844Z,97389.19
2023-01-17T01:57:35.709Z,97383.00
2023-01-17T01:58:25.833Z,97387.97
2023-01-17T01:59:14.370Z,97391.63
2023-01-17T02:00:06.147Z,97394.31
2023-01-17T02:00:53.158Z,97399.88
2023-01-17T02:01:40.201Z,97400.50
2023-01-17T02:02:28.945Z,97409.97
2023-01-17T02:03:19.796Z,97404.84
2023-01-17T02:04:10.236Z,97398.44
2023-01-17T02:04:58.277Z,97406.69
2023-01-17T02:05:45.337Z,97402.56
2023-01-17T02:06:38.097Z,97398.22
2023-01-17T02:07:33.015Z,97403.34
2023-01-17T02:08:22.158Z,97399.44
2023-01-17T02:09:10.988Z,97405.22
2023-01-17T02:09:58.296Z,97393.72
2023-01-17T02:10:45.400Z,97395.13
2023-01-17T02:11:32.717Z,97395.31
2023-01-17T02:12:20.345Z,97393.47
2023-01-17T02:13:08.316Z,97391.41
2023-01-17T02:13:55.349Z,97398.81
2023-01-17T02:14:42.675Z,97396.53
2023-01-17T02:16:08.282Z,97391.78
2023-01-17T02:16:57.765Z,97393.84
2023-01-17T02:17:54.521Z,97392.41
2023-01-17T02:18:59.986Z,97391.38
2023-01-17T02:20:09.526Z,97388.94
2023-01-17T02:21:22.383Z,97390.53
2023-01-17T02:22:40.106Z,97378.22
2023-01-17T02:23:49.864Z,97384.38
2023-01-17T02:24:48.815Z,97383.53
2023-01-17T02:25:51.024Z,97376.97
2023-01-17T02:27:20.595Z,97381.91
2023-01-17T02:28:28.842Z,97377.81
2023-01-17T02:29:21.416Z,97375.38
2023-01-17T02:30:20.265Z,97372.69
2023-01-17T02:31:36.729Z,97371.72
2023-01-17T02:32:36.376Z,97373.16
2023-01-17T02:33:34.483Z,97372.31
2023-01-17T02:34:39.230Z,97373.56
2023-01-17T02:35:30.379Z,97357.94
2023-01-17T02:36:24.435Z,97364.28
2023-01-17T02:37:17.276Z,97361.00
2023-01-17T02:38:13.120Z,97353.59
2023-01-17T02:39:04.288Z,97351.53
2023-01-17T02:40:03.267Z,97360.19
2023-01-17T02:40:55.207Z,97353.00
2023-01-17T02:41:45.031Z,97359.19
2023-01-17T02:42:42.755Z,97355.06
2023-01-17T02:43:30.005Z,97358.34
2023-01-17T02:44:19.213Z,97353.41
2023-01-17T02:45:08.129Z,97347.66
2023-01-17T02:45:55.405Z,97353.22
2023-01-17T02:46:47.102Z,97353.00
2023-01-17T02:47:34.043Z,97354.22
2023-01-17T02:48:23.369Z,97353.78
2023-01-17T02:49:10.240Z,97350.28
2023-01-17T02:50:04.085Z,97349.69
2023-01-17T02:51:02.777Z,97353.59
2023-01-17T02:51:52.415Z,97353.34
2023-01-17T02:53:00.917Z,97353.75
2023-01-17T02:53:59.788Z,97354.56
2023-01-17T02:55:14.660Z,97351.69
2023-01-17T02:56:17.105Z,97349.81
2023-01-17T02:57:11.365Z,97351.69
2023-01-17T02:58:00.982Z,97353.12
2023-01-17T02:59:09.294Z,97354.38
2023-01-17T03:00:22.591Z,97355.81
2023-01-17T03:01:16.101Z,97356.41
2023-01-17T03:02:33.999Z,97351.69
2023-01-17T03:03:28.704Z,97356.28
2023-01-17T03:04:19.833Z,97355.00
2023-01-17T03:05:10.565Z,97349.81
2023-01-17T03:06:19.832Z,97344.88
2023-01-17T03:07:11.965Z,97344.94
2023-01-17T03:07:59.049Z,97350.06
2023-01-17T03:08:47.861Z,97357.84
2023-01-17T03:09:34.827Z,97349.63
2023-01-17T03:10:22.223Z,97358.06
2023-01-17T03:11:10.541Z,97352.34
2023-01-17T03:11:58.606Z,97356.87
2023-01-17T03:12:45.662Z,97356.66
2023-01-17T03:13:32.835Z,97362.38
2023-01-17T03:14:19.671Z,97350.44
2023-01-17T03:15:24.574Z,97357.22
2023-01-17T03:16:21.357Z,97356.81
2023-01-17T03:17:08.337Z,97355.16
2023-01-17T03:17:59.012Z,97361.97
2023-01-17T03:18:45.848Z,97357.44
2023-01-17T03:19:32.736Z,97366.88
2023-01-17T03:20:22.283Z,97370.19
2023-01-17T03:21:09.417Z,97361.94
2023-01-17T03:21:56.343Z,97367.72
2023-01-17T03:22:43.236Z,97364.47
2023-01-17T03:23:30.087Z,97361.75
2023-01-17T03:24:16.945Z,97371.66
2023-01-17T03:25:04.026Z,97369.41
2023-01-17T03:25:50.866Z,97369.22
2023-01-17T03:26:37.935Z,97370.00
2023-01-17T03:27:24.781Z,97365.88
2023-01-17T03:28:11.693Z,97366.91
2023-01-17T03:28:58.619Z,97367.94
2023-01-17T03:29:45.492Z,97373.69
2023-01-17T03:30:32.428Z,97361.16
2023-01-17T03:31:22.169Z,97368.34
2023-01-17T03:32:09.009Z,97359.69
2023-01-17T03:32:55.916Z,97365.47
2023-01-17T03:33:42.891Z,97372.69
2023-01-17T03:34:29.864Z,97374.31
2023-01-17T03:35:16.856Z,97376.59
2023-01-17T03:36:04.948Z,97378.22
2023-01-17T03:36:51.766Z,97377.38
2023-01-17T03:37:38.757Z,97375.50
2023-01-17T03:38:26.645Z,97379.47
2023-01-17T03:39:13.524Z,97380.88
2023-01-17T03:40:00.424Z,97377.78
2023-01-17T03:40:47.283Z,97379.25
2023-01-17T03:41:34.117Z,97369.63
2023-01-17T03:42:20.995Z,97374.94
2023-01-17T03:43:07.858Z,97375.78
2023-01-17T03:43:54.735Z,97374.16
2023-01-17T03:44:41.768Z,97371.28
2023-01-17T03:45:28.651Z,97373.13
2023-01-17T03:46:21.295Z,97376.03
2023-01-17T03:47:12.274Z,97375.81
2023-01-17T03:48:00.015Z,97378.50
2023-01-17T03:48:46.966Z,97370.69
2023-01-17T03:49:33.794Z,97380.56
2023-01-17T03:50:20.665Z,97374.19
2023-01-17T03:51:07.613Z,97376.88
2023-01-17T03:51:54.475Z,97386.94
2023-01-17T03:52:41.335Z,97381.38
2023-01-17T03:53:28.329Z,97386.31
2023-01-17T03:54:15.226Z,97382.00
2023-01-17T03:55:02.910Z,97387.34
2023-01-17T03:55:50.039Z,97382.62
2023-01-17T03:56:37.093Z,97376.84
2023-01-17T03:57:23.954Z,97380.16
2023-01-17T03:58:10.825Z,97386.94
2023-01-17T03:58:58.706Z,97383.62
2023-01-17T03:59:47.386Z,97388.34
2023-01-17T04:00:34.280Z,97387.50
2023-01-17T04:01:21.288Z,97382.41
2023-01-17T04:02:08.268Z,97390.81
2023-01-17T04:02:55.449Z,97397.19
2023-01-17T04:03:42.303Z,97388.38
2023-01-17T04:04:29.115Z,97401.53
2023-01-17T04:05:16.286Z,97402.78
2023-01-17T04:06:03.137Z,97394.53
2023-01-17T04:06:49.967Z,97396.19
2023-01-17T04:07:36.875Z,97407.69
2023-01-17T04:08:23.819Z,97408.94
2023-01-17T04:09:10.755Z,97404.22
2023-01-17T04:09:57.606Z,97403.41
2023-01-17T04:10:44.476Z,97404.41
2023-01-17T04:11:31.588Z,97404.59
2023-01-17T04:12:18.537Z,97407.91
2023-01-17T04:13:05.492Z,97406.47
2023-01-17T04:13:52.465Z,97401.56
2023-01-17T04:14:39.984Z,97412.63
2023-01-17T04:15:26.857Z,97413.03
2023-01-17T04:16:16.559Z,97416.09
2023-01-17T04:17:04.437Z,97408.47
2023-01-17T04:17:51.454Z,97411.94
2023-01-17T04:18:38.306Z,97415.19
2023-01-17T04:19:25.175Z,97411.69
2023-01-17T04:20:35.387Z,97414.31
2023-01-17T04:21:22.427Z,97408.13
2023-01-17T04:22:09.251Z,97408.50
2023-01-17T04:22:56.128Z,97412.41
2023-01-17T04:23:42.999Z,97415.94
2023-01-17T04:24:29.907Z,97417.59
2023-01-17T04:25:16.765Z,97413.69
2023-01-17T04:26:03.854Z,97412.81
2023-01-17T04:26:50.750Z,97409.28
2023-01-17T04:27:37.625Z,97416.44
2023-01-17T04:28:24.466Z,97410.13
2023-01-17T04:29:11.503Z,97416.63
2023-01-17T04:29:58.338Z,97417.69
2023-01-17T04:30:45.194Z,97418.44
2023-01-17T04:31:32.128Z,97415.75
2023-01-17T04:32:19.135Z,97411.03
2023-01-17T04:33:05.965Z,97420.66
2023-01-17T04:33:52.911Z,97419.25
2023-01-17T04:34:39.739Z,97415.75
2023-01-17T04:35:26.859Z,97417.00
2023-01-17T04:36:13.685Z,97414.09
2023-01-17T04:37:00.578Z,97411.81
2023-01-17T04:37:47.576Z,97405.12
2023-01-17T04:38:35.402Z,97412.69
2023-01-17T04:39:22.217Z,97401.66
2023-01-17T04:40:09.600Z,97409.84
2023-01-17T04:40:56.463Z,97391.38
2023-01-17T04:41:44.086Z,97402.72
2023-01-17T04:42:31.196Z,97397.81
2023-01-17T04:43:18.126Z,97407.50
2023-01-17T04:44:05.167Z,97396.84
2023-01-17T04:44:51.995Z,97397.91
2023-01-17T04:45:39.046Z,97399.91
2023-01-17T04:46:25.970Z,97393.53
2023-01-17T04:47:12.835Z,97403.53
2023-01-17T04:48:06.562Z,97398.81
2023-01-17T04:48:53.539Z,97402.09
2023-01-17T04:49:40.402Z,97407.59
2023-01-17T04:50:27.316Z,97408.84
2023-01-17T04:51:14.146Z,97411.56
2023-01-17T04:52:01.103Z,97409.50
2023-01-17T04:52:48.148Z,97414.59
2023-01-17T04:53:35.000Z,97416.28
2023-01-17T04:54:21.872Z,97430.22
2023-01-17T04:55:09.037Z,97418.22
2023-01-17T04:55:55.904Z,97429.06
2023-01-17T04:56:42.787Z,97424.50
2023-01-17T04:57:29.738Z,97423.56
2023-01-17T04:58:16.616Z,97424.44
2023-01-17T04:59:03.568Z,97421.41
2023-01-17T04:59:50.436Z,97419.34
2023-01-17T05:00:37.248Z,97417.09
2023-01-17T05:01:24.333Z,97424.28
2023-01-17T05:02:11.475Z,97423.03
2023-01-17T05:02:58.475Z,97428.31
2023-01-17T05:03:45.513Z,97425.19
2023-01-17T05:04:32.505Z,97423.59
2023-01-17T05:05:19.358Z,97425.63
2023-01-17T05:06:06.336Z,97428.50
2023-01-17T05:06:53.215Z,97430.63
2023-01-17T05:07:40.065Z,97427.56
2023-01-17T05:08:27.222Z,97432.91
2023-01-17T05:09:14.050Z,97439.31
2023-01-17T05:10:01.161Z,97435.78
2023-01-17T05:10:48.065Z,97430.44
2023-01-17T05:11:34.875Z,97439.31
2023-01-17T05:12:21.794Z,97441.97
2023-01-17T05:13:09.680Z,97434.59
2023-01-17T05:13:56.594Z,97435.62
2023-01-17T05:14:43.411Z,97429.03
2023-01-17T05:15:30.913Z,97440.94
2023-01-17T05:16:19.605Z,97441.13
2023-01-17T05:17:06.416Z,97436.41
2023-01-17T05:17:53.700Z,97444.38
2023-01-17T05:18:40.515Z,97449.53
2023-01-17T05:19:27.927Z,97439.06
2023-01-17T05:20:14.800Z,97441.13
2023-01-17T05:21:04.812Z,97434.00
2023-01-17T05:21:52.005Z,97435.41
2023-01-17T05:22:38.932Z,97436.44
2023-01-17T05:23:25.868Z,97432.28
2023-01-17T05:24:12.688Z,97438.34
2023-01-17T05:24:59.579Z,97438.81
2023-01-17T05:25:46.503Z,97440.97
2023-01-17T05:26:33.446Z,97447.37
2023-01-17T05:27:20.296Z,97447.59
2023-01-17T05:28:07.178Z,97446.22
2023-01-17T05:28:54.055Z,97440.84
2023-01-17T05:29:40.957Z,97448.06
2023-01-17T05:30:29.307Z,97448.69
2023-01-17T05:31:16.227Z,97448.31
2023-01-17T05:32:03.116Z,97444.00
2023-01-17T05:32:51.370Z,97451.19
2023-01-17T05:33:38.307Z,97442.81
2023-01-17T05:34:25.312Z,97450.78
2023-01-17T05:35:12.209Z,97452.81
2023-01-17T05:35:59.230Z,97447.72
2023-01-17T05:36:46.095Z,97454.31
2023-01-17T05:37:32.943Z,97464.53
2023-01-17T05:38:19.918Z,97460.81
2023-01-17T05:39:06.837Z,97461.00
2023-01-17T05:39:53.687Z,97462.91
2023-01-17T05:40:40.557Z,97469.47
2023-01-17T05:41:27.495Z,97468.19
2023-01-17T05:42:14.410Z,97467.75
2023-01-17T05:43:01.763Z,97465.97
2023-01-17T05:43:48.598Z,97462.28
2023-01-17T05:44:35.416Z,97464.34
2023-01-17T05:45:24.736Z,97465.16
2023-01-17T05:46:11.690Z,97463.53
2023-01-17T05:46:58.657Z,97462.25
2023-01-17T05:47:50.269Z,97461.53
2023-01-17T05:48:37.116Z,97468.50
2023-01-17T05:49:24.170Z,97469.81
2023-01-17T05:50:16.225Z,97468.84
2023-01-17T05:51:03.075Z,97468.25
2023-01-17T05:51:49.935Z,97469.69
2023-01-17T05:52:36.845Z,97464.91
2023-01-17T05:53:23.686Z,97465.06
2023-01-17T05:54:10.599Z,97463.63
2023-01-17T05:54:57.429Z,97468.00
2023-01-17T05:55:44.901Z,97468.59
2023-01-17T05:56:31.806Z,97466.06
2023-01-17T05:57:18.696Z,97479.97
2023-01-17T05:58:06.075Z,97477.97
2023-01-17T05:58:52.961Z,97478.44
2023-01-17T05:59:39.965Z,97476.28
2023-01-17T06:00:27.154Z,97481.66
2023-01-17T06:01:14.135Z,97482.91
2023-01-17T06:02:00.978Z,97487.06
2023-01-17T06:02:48.237Z,97496.53
2023-01-17T06:03:35.471Z,97501.34
2023-01-17T06:04:22.465Z,97506.25
2023-01-17T06:05:09.829Z,97504.62
2023-01-17T06:05:56.697Z,97511.78
2023-01-17T06:06:43.607Z,97509.69
2023-01-17T06:07:30.538Z,97506.78
2023-01-17T06:08:17.508Z,97514.72
2023-01-17T06:09:04.480Z,97512.44
2023-01-17T06:09:51.326Z,97515.03
2023-01-17T06:10:38.206Z,97519.22
2023-01-17T06:11:25.097Z,97523.13
2023-01-17T06:12:12.108Z,97515.38
2023-01-17T06:13:11.227Z,97526.34
2023-01-17T06:13:58.100Z,97516.94
2023-01-17T06:14:45.157Z,97518.06
2023-01-17T06:15:32.375Z,97521.44
2023-01-17T06:16:19.313Z,97521.25
2023-01-17T06:17:06.187Z,97521.16
2023-01-17T06:17:53.027Z,97527.12
2023-01-17T06:18:39.937Z,97521.56
2023-01-17T06:19:27.198Z,97531.47
2023-01-17T06:20:14.135Z,97531.37
2023-01-17T06:21:00.947Z,97521.25
2023-01-17T06:21:47.787Z,97525.09
2023-01-17T06:22:34.835Z,97525.03
2023-01-17T06:23:22.478Z,97516.16
2023-01-17T06:24:09.327Z,97521.75
2023-01-17T06:24:56.177Z,97523.87
2023-01-17T06:25:45.002Z,97523.16
2023-01-17T06:26:31.865Z,97518.66
2023-01-17T06:27:18.708Z,97529.94
2023-01-17T06:28:08.708Z,97527.28
2023-01-17T06:28:55.596Z,97524.22
2023-01-17T06:29:42.438Z,97528.53
2023-01-17T06:30:29.448Z,97523.66
2023-01-17T06:31:16.396Z,97515.28
2023-01-17T06:32:03.549Z,97512.84
2023-01-17T06:32:54.505Z,97514.91
2023-01-17T06:33:41.338Z,97518.94
2023-01-17T06:34:28.239Z,97517.09
2023-01-17T06:35:15.166Z,97528.00
2023-01-17T06:36:02.249Z,97527.62
2023-01-17T06:36:49.187Z,97525.53
2023-01-17T06:37:36.048Z,97525.53
2023-01-17T06:38:22.928Z,97525.44
2023-01-17T06:39:10.967Z,97524.25
2023-01-17T06:39:57.883Z,97527.19
2023-01-17T06:40:44.780Z,97523.34
2023-01-17T06:41:32.027Z,97520.06
2023-01-17T06:42:18.956Z,97522.56
2023-01-17T06:43:05.990Z,97516.00
2023-01-17T06:43:53.900Z,97527.00
2023-01-17T06:44:40.898Z,97527.38
2023-01-17T06:45:29.977Z,97528.25
2023-01-17T06:46:16.904Z,97528.09
2023-01-17T06:47:03.902Z,97533.63
2023-01-17T06:47:50.777Z,97528.53
2023-01-17T06:48:37.646Z,97530.00
2023-01-17T06:49:24.451Z,97528.34
2023-01-17T06:50:13.946Z,97522.59
2023-01-17T06:51:00.792Z,97522.63
2023-01-17T06:51:47.707Z,97526.56
2023-01-17T06:52:34.584Z,97524.91
2023-01-17T06:53:21.519Z,97530.66
2023-01-17T06:54:08.804Z,97525.94
2023-01-17T06:54:55.637Z,97527.38
2023-01-17T06:55:43.806Z,97526.38
2023-01-17T06:56:32.129Z,97533.50
2023-01-17T06:57:19.016Z,97530.44
2023-01-17T06:58:06.037Z,97535.50
2023-01-17T06:58:52.946Z,97532.69
2023-01-17T06:59:39.854Z,97536.38
2023-01-17T07:00:27.739Z,97544.19
2023-01-17T07:01:14.687Z,97550.12
2023-01-17T07:02:01.688Z,97547.09
2023-01-17T07:02:51.964Z,97545.69
2023-01-17T07:03:39.031Z,97555.50
2023-01-17T07:04:25.901Z,97556.09
2023-01-17T07:05:12.735Z,97553.66
2023-01-17T07:06:01.784Z,97565.38
2023-01-17T07:06:48.596Z,97560.84
2023-01-17T07:07:35.457Z,97572.97
2023-01-17T07:08:22.526Z,97570.09
2023-01-17T07:09:09.361Z,97568.66
2023-01-17T07:09:56.204Z,97562.91
2023-01-17T07:10:47.433Z,97569.06
2023-01-17T07:11:34.535Z,97569.91
2023-01-17T07:12:21.416Z,97576.47
2023-01-17T07:13:08.297Z,97572.56
2023-01-17T07:13:55.137Z,97575.03
2023-01-17T07:14:42.090Z,97574.16
2023-01-17T07:15:29.162Z,97575.44
2023-01-17T07:16:16.390Z,97581.81
2023-01-17T07:17:04.467Z,97580.16
2023-01-17T07:17:51.384Z,97583.28
2023-01-17T07:18:38.282Z,97587.78
2023-01-17T07:19:25.336Z,97593.56
2023-01-17T07:20:12.303Z,97597.28
2023-01-17T07:20:59.356Z,97597.91
2023-01-17T07:21:46.365Z,97601.38
2023-01-17T07:22:33.210Z,97608.37
2023-01-17T07:23:21.366Z,97612.91
2023-01-17T07:24:09.389Z,97613.94
2023-01-17T07:24:58.879Z,97610.16
2023-01-17T07:25:58.256Z,97608.69
2023-01-17T07:26:48.601Z,97614.31
2023-01-17T07:27:35.458Z,97617.16
2023-01-17T07:28:22.817Z,97625.22
2023-01-17T07:29:09.747Z,97628.06
2023-01-17T07:29:57.573Z,97634.00
2023-01-17T07:30:44.947Z,97629.09
2023-01-17T07:31:35.449Z,97637.94
2023-01-17T07:32:24.518Z,97639.66
2023-01-17T07:33:11.537Z,97641.06
2023-01-17T07:33:58.376Z,97652.09
2023-01-17T07:34:45.240Z,97647.63
2023-01-17T07:35:32.129Z,97642.66
2023-01-17T07:36:19.075Z,97645.31
2023-01-17T07:37:06.511Z,97633.56
2023-01-17T07:37:53.925Z,97638.53
2023-01-17T07:38:41.187Z,97640.53
2023-01-17T07:39:28.077Z,97649.81
2023-01-17T07:40:15.487Z,97646.75
2023-01-17T07:41:02.776Z,97649.69
2023-01-17T07:41:49.657Z,97651.25
2023-01-17T07:42:36.505Z,97649.22
2023-01-17T07:43:23.446Z,97646.87
2023-01-17T07:44:13.995Z,97652.38
2023-01-17T07:45:00.885Z,97648.47
2023-01-17T07:45:52.317Z,97646.03
2023-01-17T07:46:39.746Z,97650.31
2023-01-17T07:47:26.786Z,97652.31
2023-01-17T07:48:13.804Z,97651.50
2023-01-17T07:49:00.842Z,97651.75
2023-01-17T07:49:47.758Z,97650.69
2023-01-17T07:50:34.606Z,97649.91
2023-01-17T07:51:21.472Z,97643.19
2023-01-17T07:52:09.026Z,97643.09
2023-01-17T07:52:56.614Z,97650.50
2023-01-17T07:53:43.715Z,97632.88
2023-01-17T07:54:30.572Z,97640.25
2023-01-17T07:55:17.816Z,97636.09
2023-01-17T07:56:06.437Z,97636.34
2023-01-17T07:56:53.243Z,97636.34
2023-01-17T07:57:40.069Z,97631.63
2023-01-17T07:58:26.945Z,97622.19
2023-01-17T07:59:14.161Z,97625.06
2023-01-17T08:00:01.029Z,97632.66
2023-01-17T08:00:48.158Z,97631.09
2023-01-17T08:01:35.202Z,97637.87
2023-01-17T08:02:23.787Z,97632.97
2023-01-17T08:03:16.153Z,97627.47
2023-01-17T08:04:03.117Z,97637.00
2023-01-17T08:04:50.276Z,97643.38
2023-01-17T08:05:37.144Z,97651.81
2023-01-17T08:06:29.338Z,97654.69
2023-01-17T08:07:16.669Z,97659.63
2023-01-17T08:08:03.709Z,97659.03
2023-01-17T08:08:51.227Z,97666.41
2023-01-17T08:09:38.121Z,97662.50
2023-01-17T08:10:25.185Z,97667.38
2023-01-17T08:11:12.208Z,97670.19
2023-01-17T08:11:59.056Z,97669.63
2023-01-17T08:12:49.357Z,97664.91
2023-01-17T08:13:36.319Z,97672.28
2023-01-17T08:14:23.215Z,97671.94
2023-01-17T08:15:10.902Z,97673.50
2023-01-17T08:15:57.777Z,97670.66
2023-01-17T08:16:46.723Z,97670.00
2023-01-17T08:17:34.097Z,97665.06
2023-01-17T08:18:23.741Z,97666.78
2023-01-17T08:19:10.637Z,97668.22
2023-01-17T08:19:57.476Z,97675.25
2023-01-17T08:20:44.986Z,97676.87
2023-01-17T08:21:31.887Z,97679.78
2023-01-17T08:22:18.839Z,97687.53
2023-01-17T08:23:05.775Z,97675.75
2023-01-17T08:23:52.874Z,97674.91
2023-01-17T08:24:39.828Z,97668.94
2023-01-17T08:25:27.394Z,97673.22
2023-01-17T08:26:21.486Z,97671.59
2023-01-17T08:27:09.223Z,97673.66
2023-01-17T08:27:59.453Z,97673.41
2023-01-17T08:28:46.428Z,97673.44
2023-01-17T08:29:35.355Z,97675.53
2023-01-17T08:30:22.208Z,97674.47
2023-01-17T08:31:10.286Z,97677.56
2023-01-17T08:31:57.207Z,97678.56
2023-01-17T08:32:44.156Z,97682.63
2023-01-17T08:33:33.024Z,97680.50
2023-01-17T08:34:19.951Z,97676.16
2023-01-17T08:35:09.087Z,97671.00
2023-01-17T08:35:56.146Z,97673.28
2023-01-17T08:36:43.309Z,97670.59
2023-01-17T08:37:30.218Z,97670.19
2023-01-17T08:38:17.083Z,97665.31
2023-01-17T08:39:03.949Z,97668.28
2023-01-17T08:39:51.008Z,97668.37
2023-01-17T08:40:37.938Z,97673.25
2023-01-17T08:41:27.396Z,97670.38
2023-01-17T08:42:14.231Z,97680.62
2023-01-17T08:43:01.466Z,97678.56
2023-01-17T08:43:49.178Z,97676.72
2023-01-17T08:44:36.059Z,97677.97
2023-01-17T08:45:23.676Z,97677.78
2023-01-17T08:46:10.678Z,97679.25
2023-01-17T08:46:57.673Z,97666.38
2023-01-17T08:47:44.607Z,97674.59
2023-01-17T08:48:31.436Z,97676.13
2023-01-17T08:49:18.359Z,97681.28
2023-01-17T08:50:07.125Z,97673.19
2023-01-17T08:50:53.968Z,97676.81
2023-01-17T08:51:43.117Z,97685.09
2023-01-17T08:52:30.243Z,97689.97
2023-01-17T08:53:20.408Z,97695.50
2023-01-17T08:54:07.683Z,97703.72
2023-01-17T08:54:54.758Z,97702.09
2023-01-17T08:55:41.586Z,97707.66
2023-01-17T08:56:28.498Z,97713.41
2023-01-17T08:57:17.387Z,97720.81
2023-01-17T08:58:04.206Z,97715.69
2023-01-17T08:58:51.061Z,97720.44
2023-01-17T08:59:37.906Z,97718.38
2023-01-17T09:00:24.957Z,97714.81
2023-01-17T09:01:12.411Z,97713.06
2023-01-17T09:02:15.747Z,97709.16
2023-01-17T09:03:02.677Z,97716.16
2023-01-17T09:03:50.037Z,97717.78
2023-01-17T09:04:36.970Z,97721.69
2023-01-17T09:05:23.877Z,97727.19
2023-01-17T09:06:15.596Z,97725.78
2023-01-17T09:07:03.271Z,97731.97
2023-01-17T09:07:50.097Z,97732.16
2023-01-17T09:08:37.466Z,97738.00
2023-01-17T09:09:24.347Z,97749.75
2023-01-17T09:10:11.637Z,97740.66
2023-01-17T09:10:58.842Z,97746.28
2023-01-17T09:11:45.774Z,97737.44
2023-01-17T09:12:33.585Z,97745.28
2023-01-17T09:13:20.470Z,97744.28
2023-01-17T09:14:07.600Z,97734.56
2023-01-17T09:14:54.546Z,97737.47
2023-01-17T09:15:41.375Z,97736.44
2023-01-17T09:16:29.032Z,97732.34
2023-01-17T09:17:15.947Z,97729.28
2023-01-17T09:18:02.837Z,97736.84
2023-01-17T09:18:49.711Z,97746.50
2023-01-17T09:19:39.273Z,97738.94
2023-01-17T09:20:30.275Z,97744.66
2023-01-17T09:21:18.103Z,97737.84
2023-01-17T09:22:05.707Z,97743.47
2023-01-17T09:22:52.599Z,97737.66
2023-01-17T09:23:39.724Z,97749.56
2023-01-17T09:24:26.685Z,97747.72
2023-01-17T09:25:13.669Z,97734.19
2023-01-17T09:26:00.578Z,97741.44
2023-01-17T09:26:47.496Z,97732.16
2023-01-17T09:27:34.380Z,97739.13
2023-01-17T09:28:21.787Z,97739.59
2023-01-17T09:29:08.667Z,97737.37
2023-01-17T09:29:55.524Z,97744.31
2023-01-17T09:30:42.545Z,97744.94
2023-01-17T09:31:29.533Z,97748.06
2023-01-17T09:32:17.347Z,97750.94
2023-01-17T09:33:04.248Z,97745.37
2023-01-17T09:33:52.146Z,97745.63
2023-01-17T09:34:38.999Z,97751.59
2023-01-17T09:35:25.832Z,97745.44
2023-01-17T09:36:13.216Z,97751.41
2023-01-17T09:37:00.104Z,97754.50
2023-01-17T09:37:51.006Z,97753.25
2023-01-17T09:38:38.960Z,97755.94
2023-01-17T09:39:25.966Z,97756.56
2023-01-17T09:40:16.827Z,97756.56
2023-01-17T09:41:04.446Z,97757.59
2023-01-17T09:42:09.590Z,97765.84
2023-01-17T09:43:05.931Z,97761.94
2023-01-17T09:43:57.330Z,97768.09
2023-01-17T09:44:51.882Z,97766.00
2023-01-17T09:45:39.252Z,97770.56
2023-01-17T09:46:30.417Z,97771.22
2023-01-17T09:47:42.731Z,97771.66
2023-01-17T09:48:37.254Z,97773.13
2023-01-17T09:49:29.862Z,97776.66